Gray, Maine
Current Conditions -  °F | °C
As of 12:35 PM on Friday 21 Nov 2014 (Local Time) from KLEW Reporting Station
Broken Clouds Broken Clouds  
Wind Chill: 17°   Ceiling: 5000
Heat Index: 28°   Visibility: 10mi
Dew Point:   Wind: 16mph
Humidity: 43%   Direction: 330°NNW
Pressure: 30.04"   Gusts: 21mph
Location:  43.89°N, 70.33°W
Report Text: KLEW 211735Z AUTO 33014G18KT 10SM BKN050 M02/M13 A3004 RMK AO1
Loading
Personal Weather Stations






























Interactive Weather Map New forecast layout! Learn more

10-Day Weather Forecast

Advertisements
Track Severe Weather on mobile